Pays
Station

 

Conditions  météo  pour  Toul/Rosieres  -  France    France

  
10 °C
    
 
 

METAR pour Toul/Rosieres :

LFSL 212230Z AUTO VRB03KT CAVOK 10/06 Q1022

 

Voici le bulletin pour Toul/Rosieres - France.
 
Le bulletin a été fait il y a 32 minutes, à 22:30 UTC .
Le vent soufflait à la vitesse de 1.5 mètres par seconde de direction variable.
 
La température était de 10 °C, avec un point de rosée à 6 °C.
La pression atmosphérique était de 1022 hPa.
L'humidité relative était de 76.2%.
 
Il y avait pas de nuages en-dessous de 1500 mètres et pas de cumulonimbus.
 
La visibilité globale était de supérieure à 10 kilomètres.
 

 
 
 

Pays :   A   B   C   D   E   F   G   H   I   J   K   L   M   N   O   P   Q   R   S   T   U   V   W   Y   Z

 

Partenaires :  Info Météo avec Met'info
Météo Marine avec MeteoMarine.net
Infos Site  |  Infos Légales  |  Crédits  |  Confidentialité
Contactez-nous  |  Ajouter aux favoris
© 2013-2018 METAR - Tous droits réservés